Mt Champion Express — A8QN4 — position and weather

sailwx.info

Track history (hours):
 
Tides and Currents Weather Stations Pressure Air Temp Water Temp Dewpoint Dewpoint Depression Visibility Wind Speed Wind Dir Waves Ship Positions

Mt Champion Express

Last reported at 2015-May-13 19:32 UTC. Time now 2015-May-28 16:16 UTC.
Position N 22°07' E 114°21'.
Warning: this ship's position is 14 days out of date.

Length 192 m; draft 7 m.

Type: Tanker. MMSI: 636013968.

Date/timePositionNaut miles runAvg speedWind from/ knotsBaromVisibWave heightAir tempDewpointWater temp
2015-May-13 19:32N 22°07' E 114°21'11 8.1
2015-May-13 18:10N 22°12' E 114°11'6 7.7
2015-May-13 17:27N 22°16' E 114°06'1 1.1
2015-May-13 16:28N 22°17' E 114°06'0 0.0
2015-May-13 15:13N 22°17' E 114°06'0 0.0
2015-May-13 14:22N 22°17' E 114°06'0 0.0
2015-May-13 13:31N 22°17' E 114°06'0 0.1
2015-May-13 11:19N 22°17' E 114°06'0 0.1
2015-May-13 10:31N 22°17' E 114°06'0 0.0
2015-May-13 09:25N 22°17' E 114°06'0 0.0
2015-May-13 08:31N 22°17' E 114°06'0 0.1
2015-May-13 07:31N 22°17' E 114°06'0 0.1
2015-May-13 06:22N 22°17' E 114°05'0 0.0
2015-May-13 05:28N 22°17' E 114°05'0 0.0
2015-May-13 04:31N 22°17' E 114°05'0 0.3
2015-May-13 03:33N 22°17' E 114°06'12 4.8
2015-May-13 01:04N 22°09' E 114°15'610.3
2015-May-13 00:28N 22°08' E 114°21'31811.2
2015-May-11 20:12N 22°32' E 120°04'812.2
2015-May-11 19:33N 22°33' E 120°13'5 5.2
2015-May-11 18:33N 22°35' E 120°18'1 0.7
2015-May-11 17:19N 22°36' E 120°17'0 0.0
2015-May-11 16:23N 22°36' E 120°17'0 0.0
2015-May-11 15:33N 22°36' E 120°17'0 0.0
2015-May-11 14:23N 22°36' E 120°17'0 0.0
2015-May-11 13:28N 22°36' E 120°17'0 0.0
2015-May-11 12:29N 22°36' E 120°17'0 0.0
2015-May-11 11:23N 22°36' E 120°17'0 0.0
2015-May-11 10:21N 22°36' E 120°17'0 0.0
2015-May-11 09:33N 22°36' E 120°17'0 0.0
2015-May-11 08:33N 22°36' E 120°17'0 0.0
2015-May-11 07:08N 22°36' E 120°17'0 0.0
2015-May-11 06:20N 22°36' E 120°17'0 0.0
2015-May-11 05:29N 22°36' E 120°17'0 0.0
2015-May-11 04:34N 22°36' E 120°17'0 0.0
2015-May-11 03:30N 22°36' E 120°17'0 0.0
2015-May-11 02:19N 22°36' E 120°17'0 0.0
2015-May-10 23:33N 22°36' E 120°17'0 0.0
2015-May-10 22:30N 22°36' E 120°17'0 0.0
2015-May-10 21:32N 22°36' E 120°17'0 0.0
2015-May-10 20:33N 22°36' E 120°17'0 0.0
2015-May-10 19:24N 22°36' E 120°17'0 0.0
2015-May-10 18:33N 22°36' E 120°17'0 0.0
2015-May-10 17:33N 22°36' E 120°17'0 0.0
2015-May-10 16:17N 22°36' E 120°17'0 0.0
2015-May-10 15:29N 22°36' E 120°17'0 0.0
2015-May-10 14:09N 22°36' E 120°17'0 0.0
2015-May-10 13:29N 22°36' E 120°17'0 0.0
2015-May-10 12:27N 22°36' E 120°17'1 1.6
2015-May-10 11:32N 22°37' E 120°17'7 7.3
2015-May-10 10:33N 22°38' E 120°09'9 9.3
2015-May-10 09:33N 22°44' E 120°01'1212.1
2015-May-10 08:33N 22°54' E 119°54'  
2015-May-08 02:33N 31°14' E 122°01'1312.8
2015-May-08 01:33N 31°18' E 121°47'1110.8
2015-May-08 00:33N 31°23' E 121°36'10 9.8
2015-May-07 23:33N 31°29' E 121°26'7 6.8
2015-May-07 22:28N 31°34' E 121°20'0 0.2
2015-May-07 21:31N 31°34' E 121°20'0 0.0
2015-May-07 20:31N 31°34' E 121°20'0 0.0
2015-May-07 19:31N 31°34' E 121°20'0 0.0
2015-May-07 18:31N 31°34' E 121°20'0 0.0
2015-May-07 17:28N 31°34' E 121°20'0 0.1
2015-May-07 16:31N 31°34' E 121°20'0 0.2
2015-May-07 15:31N 31°34' E 121°20'0 0.1
2015-May-07 14:33N 31°34' E 121°20'7 6.6
2015-May-07 13:34N 31°38' E 121°14'1813.2
2015-May-07 12:11N 31°47' E 120°56'1112.5
2015-May-07 11:17N 31°58' E 120°51'8 9.1
2015-May-07 10:27N 32°00' E 120°42'16 1.6
2015-May-07 00:22N 32°02' E 120°24'0 0.0
2015-May-06 23:04N 32°02' E 120°24'0 0.0
2015-May-06 22:28N 32°02' E 120°24'0 0.0
2015-May-06 21:22N 32°02' E 120°24'0 0.0
2015-May-06 20:04N 32°02' E 120°24'0 0.0
2015-May-06 19:28N 32°02' E 120°24'0 0.0
2015-May-06 18:04N 32°02' E 120°24'0 0.0
2015-May-06 17:28N 32°02' E 120°24'0 0.0
2015-May-06 16:22N 32°02' E 120°24'0 0.0
2015-May-06 14:10N 32°02' E 120°24'0 0.0
2015-May-06 10:28N 32°02' E 120°24'0 0.0
2015-May-06 07:28N 32°02' E 120°24'0 0.0
2015-May-06 06:28N 32°02' E 120°24'0 0.0
2015-May-06 05:15N 32°02' E 120°24'0 0.1
2015-May-06 04:33N 32°02' E 120°24'6 6.2
2015-May-06 03:33N 31°58' E 120°19'1211.8
2015-May-06 02:33N 31°57' E 120°05'  
Track history (hours):
 
Tides and Currents Weather Stations Pressure Air Temp Water Temp Dewpoint Dewpoint Depression Visibility Wind Speed Wind Dir Waves Ship Positions

Mt Champion Express

Last reported at 2015-May-13 19:32 UTC. Time now 2015-May-28 16:16 UTC.
Position N 22°07' E 114°21'.
Warning: this ship's position is 14 days out of date.

Length 192 m; draft 7 m.

Type: Tanker. MMSI: 636013968.

Date/timePositionNaut miles runAvg speedWind from/ knotsBaromVisibWave heightAir tempDewpointWater temp
2015-May-13 19:32N 22°07' E 114°21'11 8.1
2015-May-13 18:10N 22°12' E 114°11'6 7.7
2015-May-13 17:27N 22°16' E 114°06'1 1.1
2015-May-13 16:28N 22°17' E 114°06'0 0.0
2015-May-13 15:13N 22°17' E 114°06'0 0.0
2015-May-13 14:22N 22°17' E 114°06'0 0.0
2015-May-13 13:31N 22°17' E 114°06'0 0.1
2015-May-13 11:19N 22°17' E 114°06'0 0.1
2015-May-13 10:31N 22°17' E 114°06'0 0.0
2015-May-13 09:25N 22°17' E 114°06'0 0.0
2015-May-13 08:31N 22°17' E 114°06'0 0.1
2015-May-13 07:31N 22°17' E 114°06'0 0.1
2015-May-13 06:22N 22°17' E 114°05'0 0.0
2015-May-13 05:28N 22°17' E 114°05'0 0.0
2015-May-13 04:31N 22°17' E 114°05'0 0.3
2015-May-13 03:33N 22°17' E 114°06'12 4.8
2015-May-13 01:04N 22°09' E 114°15'610.3
2015-May-13 00:28N 22°08' E 114°21'31811.2
2015-May-11 20:12N 22°32' E 120°04'812.2
2015-May-11 19:33N 22°33' E 120°13'5 5.2
2015-May-11 18:33N 22°35' E 120°18'1 0.7
2015-May-11 17:19N 22°36' E 120°17'0 0.0
2015-May-11 16:23N 22°36' E 120°17'0 0.0
2015-May-11 15:33N 22°36' E 120°17'0 0.0
2015-May-11 14:23N 22°36' E 120°17'0 0.0
2015-May-11 13:28N 22°36' E 120°17'0 0.0
2015-May-11 12:29N 22°36' E 120°17'0 0.0
2015-May-11 11:23N 22°36' E 120°17'0 0.0
2015-May-11 10:21N 22°36' E 120°17'0 0.0
2015-May-11 09:33N 22°36' E 120°17'0 0.0
2015-May-11 08:33N 22°36' E 120°17'0 0.0
2015-May-11 07:08N 22°36' E 120°17'0 0.0
2015-May-11 06:20N 22°36' E 120°17'0 0.0
2015-May-11 05:29N 22°36' E 120°17'0 0.0
2015-May-11 04:34N 22°36' E 120°17'0 0.0
2015-May-11 03:30N 22°36' E 120°17'0 0.0
2015-May-11 02:19N 22°36' E 120°17'0 0.0
2015-May-10 23:33N 22°36' E 120°17'0 0.0
2015-May-10 22:30N 22°36' E 120°17'0 0.0
2015-May-10 21:32N 22°36' E 120°17'0 0.0
2015-May-10 20:33N 22°36' E 120°17'0 0.0
2015-May-10 19:24N 22°36' E 120°17'0 0.0
2015-May-10 18:33N 22°36' E 120°17'0 0.0
2015-May-10 17:33N 22°36' E 120°17'0 0.0
2015-May-10 16:17N 22°36' E 120°17'0 0.0
2015-May-10 15:29N 22°36' E 120°17'0 0.0
2015-May-10 14:09N 22°36' E 120°17'0 0.0
2015-May-10 13:29N 22°36' E 120°17'0 0.0
2015-May-10 12:27N 22°36' E 120°17'1 1.6
2015-May-10 11:32N 22°37' E 120°17'7 7.3
2015-May-10 10:33N 22°38' E 120°09'9 9.3
2015-May-10 09:33N 22°44' E 120°01'1212.1
2015-May-10 08:33N 22°54' E 119°54'  
2015-May-08 02:33N 31°14' E 122°01'1312.8
2015-May-08 01:33N 31°18' E 121°47'1110.8
2015-May-08 00:33N 31°23' E 121°36'10 9.8
2015-May-07 23:33N 31°29' E 121°26'7 6.8
2015-May-07 22:28N 31°34' E 121°20'0 0.2
2015-May-07 21:31N 31°34' E 121°20'0 0.0
2015-May-07 20:31N 31°34' E 121°20'0 0.0
2015-May-07 19:31N 31°34' E 121°20'0 0.0
2015-May-07 18:31N 31°34' E 121°20'0 0.0
2015-May-07 17:28N 31°34' E 121°20'0 0.1
2015-May-07 16:31N 31°34' E 121°20'0 0.2
2015-May-07 15:31N 31°34' E 121°20'0 0.1
2015-May-07 14:33N 31°34' E 121°20'7 6.6
2015-May-07 13:34N 31°38' E 121°14'1813.2
2015-May-07 12:11N 31°47' E 120°56'1112.5
2015-May-07 11:17N 31°58' E 120°51'8 9.1
2015-May-07 10:27N 32°00' E 120°42'16 1.6
2015-May-07 00:22N 32°02' E 120°24'0 0.0
2015-May-06 23:04N 32°02' E 120°24'0 0.0
2015-May-06 22:28N 32°02' E 120°24'0 0.0
2015-May-06 21:22N 32°02' E 120°24'0 0.0
2015-May-06 20:04N 32°02' E 120°24'0 0.0
2015-May-06 19:28N 32°02' E 120°24'0 0.0
2015-May-06 18:04N 32°02' E 120°24'0 0.0
2015-May-06 17:28N 32°02' E 120°24'0 0.0
2015-May-06 16:22N 32°02' E 120°24'0 0.0
2015-May-06 14:10N 32°02' E 120°24'0 0.0
2015-May-06 10:28N 32°02' E 120°24'0 0.0
2015-May-06 07:28N 32°02' E 120°24'0 0.0
2015-May-06 06:28N 32°02' E 120°24'0 0.0
2015-May-06 05:15N 32°02' E 120°24'0 0.1
2015-May-06 04:33N 32°02' E 120°24'6 6.2
2015-May-06 03:33N 31°58' E 120°19'1211.8
2015-May-06 02:33N 31°57' E 120°05'  

Dump ship's entire track history